createdAt,value
2022-08-11T00:01:56.027Z,3.85
2022-08-11T00:04:25.948Z,3.53
2022-08-11T00:06:53.516Z,3.55
2022-08-11T00:09:22.576Z,3.38
2022-08-11T00:11:52.105Z,3.13
2022-08-11T00:14:21.919Z,3.55
2022-08-11T00:17:11.615Z,3.35
2022-08-11T00:20:14.945Z,3.40
2022-08-11T00:22:33.906Z,3.40
2022-08-11T00:25:10.028Z,3.58
2022-08-11T00:27:41.592Z,3.50
2022-08-11T00:30:10.421Z,3.50
2022-08-11T00:32:45.219Z,3.38
2022-08-11T00:35:55.898Z,3.22
2022-08-11T00:38:06.624Z,3.67
2022-08-11T00:41:09.126Z,3.65
2022-08-11T00:43:51.703Z,3.70
2022-08-11T00:46:35.330Z,3.60
2022-08-11T00:49:29.635Z,3.40
2022-08-11T00:52:10.146Z,3.97
2022-08-11T00:54:42.592Z,3.30
2022-08-11T00:57:37.531Z,3.90
2022-08-11T01:00:15.999Z,3.80
2022-08-11T01:03:20.516Z,3.60
2022-08-11T01:06:12.059Z,3.67
2022-08-11T01:08:57.110Z,3.40
2022-08-11T01:11:59.772Z,3.28
2022-08-11T01:14:40.260Z,3.65
2022-08-11T01:17:29.734Z,3.63
2022-08-11T01:20:46.540Z,3.83
2022-08-11T01:23:33.640Z,3.78
2022-08-11T01:26:37.891Z,3.58
2022-08-11T01:29:42.058Z,3.47
2022-08-11T01:32:40.467Z,3.75
2022-08-11T01:35:22.180Z,3.60
2022-08-11T01:38:21.080Z,3.30
2022-08-11T01:41:03.025Z,3.35
2022-08-11T01:44:23.779Z,3.65
2022-08-11T01:47:52.538Z,3.78
2022-08-11T01:50:23.420Z,3.10
2022-08-11T01:53:15.976Z,3.60
2022-08-11T01:56:08.917Z,3.72
2022-08-11T01:59:15.906Z,3.72
2022-08-11T02:02:23.771Z,3.40
2022-08-11T02:05:03.250Z,3.30
2022-08-11T02:07:58.724Z,3.83
2022-08-11T02:11:08.170Z,3.65
2022-08-11T02:14:23.328Z,4.60
2022-08-11T02:17:08.954Z,3.83
2022-08-11T02:20:22.326Z,3.45
2022-08-11T02:23:13.344Z,3.75
2022-08-11T02:26:05.547Z,3.95
2022-08-11T02:28:57.395Z,4.00
2022-08-11T02:32:25.881Z,3.70
2022-08-11T02:34:59.546Z,3.67
2022-08-11T02:37:34.279Z,3.63
2022-08-11T02:40:28.027Z,3.88
2022-08-11T02:43:13.233Z,3.67
2022-08-11T02:46:18.291Z,3.80
2022-08-11T02:49:20.866Z,4.93
2022-08-11T02:52:19.542Z,3.95
2022-08-11T02:54:58.146Z,3.95
2022-08-11T02:57:39.212Z,4.25
2022-08-11T03:00:08.325Z,3.85
2022-08-11T03:02:49.134Z,4.03
2022-08-11T03:05:20.257Z,3.63
2022-08-11T03:08:11.456Z,3.45
2022-08-11T03:11:33.360Z,3.80
2022-08-11T03:14:28.310Z,3.60
2022-08-11T03:17:26.212Z,3.47
2022-08-11T03:20:11.230Z,3.78
2022-08-11T03:22:50.284Z,3.63
2022-08-11T03:25:34.719Z,3.80
2022-08-11T03:28:21.133Z,4.20
2022-08-11T03:31:23.091Z,3.67
2022-08-11T03:34:09.023Z,3.85
2022-08-11T03:37:37.189Z,3.53
2022-08-11T03:40:08.078Z,3.97
2022-08-11T03:42:50.507Z,4.03
2022-08-11T03:45:24.122Z,4.00
2022-08-11T03:48:18.808Z,3.53
2022-08-11T03:51:01.047Z,4.18
2022-08-11T03:53:56.348Z,4.18
2022-08-11T03:56:46.795Z,4.25
2022-08-11T04:02:17.960Z,4.28
2022-08-11T04:05:18.053Z,4.15
2022-08-11T04:08:06.365Z,4.95
2022-08-11T04:11:03.624Z,4.30
2022-08-11T04:13:45.306Z,4.60
2022-08-11T04:16:44.511Z,4.28
2022-08-11T04:19:42.115Z,3.92
2022-08-11T04:22:28.207Z,5.03
2022-08-11T04:25:24.526Z,4.90
2022-08-11T04:31:51.857Z,4.90
2022-08-11T04:34:43.130Z,4.70
2022-08-11T04:40:08.526Z,3.65
2022-08-11T04:43:21.933Z,4.35
2022-08-11T04:46:06.723Z,4.78
2022-08-11T04:56:07.496Z,5.15
2022-08-11T04:59:34.628Z,4.60
2022-08-11T05:02:46.220Z,4.50
2022-08-11T05:05:56.538Z,4.57
2022-08-11T05:09:03.555Z,4.53
2022-08-11T05:12:06.307Z,4.60
2022-08-11T05:19:05.584Z,4.85
2022-08-11T05:22:16.041Z,5.10
2022-08-11T05:28:58.313Z,4.78
2022-08-11T05:31:55.486Z,4.30
2022-08-11T05:34:56.053Z,4.38
2022-08-11T05:37:37.610Z,3.92
2022-08-11T05:40:31.306Z,4.57
2022-08-11T05:43:32.084Z,3.55
2022-08-11T05:46:23.532Z,4.75
2022-08-11T05:49:10.550Z,3.97
2022-08-11T05:52:05.517Z,4.28
2022-08-11T05:55:06.073Z,3.80
2022-08-11T05:57:48.935Z,4.40
2022-08-11T06:00:19.812Z,4.20
2022-08-11T06:02:55.546Z,4.40
2022-08-11T06:05:25.166Z,4.55
2022-08-11T06:07:57.183Z,4.20
2022-08-11T06:10:40.966Z,4.10
2022-08-11T06:13:10.260Z,3.78
2022-08-11T06:15:54.971Z,3.90
2022-08-11T06:18:27.844Z,5.03
2022-08-11T06:21:03.351Z,3.85
2022-08-11T06:23:35.984Z,3.72
2022-08-11T06:26:11.681Z,3.50
2022-08-11T06:28:40.684Z,3.25
2022-08-11T06:31:17.613Z,3.00
2022-08-11T06:33:50.589Z,3.10
2022-08-11T06:36:28.284Z,3.40
2022-08-11T06:39:06.810Z,2.70
2022-08-11T06:41:47.408Z,3.20
2022-08-11T06:44:14.124Z,3.30
2022-08-11T06:47:14.772Z,2.83
2022-08-11T06:50:07.729Z,2.85
2022-08-11T06:52:59.354Z,2.97
2022-08-11T06:55:57.349Z,2.75
2022-08-11T06:58:58.853Z,3.30
2022-08-11T07:01:51.575Z,2.78
2022-08-11T07:04:33.115Z,3.03
2022-08-11T07:07:50.763Z,3.00
2022-08-11T07:11:19.521Z,2.90
2022-08-11T07:14:05.925Z,2.75
2022-08-11T07:16:52.515Z,2.78
2022-08-11T07:22:00.393Z,2.65
2022-08-11T07:23:29.977Z,2.83
2022-08-11T07:26:19.607Z,3.08
2022-08-11T07:29:12.151Z,3.03
2022-08-11T07:32:00.273Z,2.90
2022-08-11T07:35:05.291Z,2.35
2022-08-11T07:38:01.383Z,2.58
2022-08-11T07:40:39.803Z,2.30
2022-08-11T07:43:07.568Z,2.75
2022-08-11T07:46:04.872Z,2.70
2022-08-11T07:48:58.346Z,2.75
2022-08-11T07:51:45.668Z,2.92
2022-08-11T07:54:16.271Z,2.58
2022-08-11T07:57:09.048Z,2.20
2022-08-11T08:00:04.863Z,2.53
2022-08-11T08:03:11.056Z,2.13
2022-08-11T08:05:57.399Z,2.97
2022-08-11T08:09:51.531Z,2.38
2022-08-11T08:12:57.039Z,2.50
2022-08-11T08:16:04.733Z,2.58
2022-08-11T08:19:06.655Z,2.15
2022-08-11T08:21:51.329Z,2.20
2022-08-11T08:24:33.310Z,2.05
2022-08-11T08:34:07.182Z,2.40
2022-08-11T08:39:28.927Z,2.08
2022-08-11T08:49:04.686Z,2.50
2022-08-11T08:52:01.329Z,2.35
2022-08-11T08:54:53.713Z,1.70
2022-08-11T08:57:44.205Z,1.83
2022-08-11T09:00:23.327Z,2.45
2022-08-11T09:11:52.345Z,2.13
2022-08-11T09:14:56.183Z,2.15
2022-08-11T09:21:44.616Z,1.92
2022-08-11T09:24:43.011Z,2.42
2022-08-11T09:27:50.973Z,1.95
2022-08-11T09:30:41.050Z,2.30
2022-08-11T09:33:16.346Z,2.40
2022-08-11T09:35:45.554Z,2.20
2022-08-11T09:38:46.132Z,2.22
2022-08-11T09:42:00.565Z,2.22
2022-08-11T09:47:36.528Z,2.10
2022-08-11T09:50:31.401Z,1.77
2022-08-11T09:53:36.020Z,1.83
2022-08-11T09:55:58.542Z,1.70
2022-08-11T09:58:43.221Z,1.85
2022-08-11T10:01:29.424Z,2.30
2022-08-11T10:04:55.305Z,1.90
2022-08-11T10:08:22.516Z,2.03
2022-08-11T10:14:35.238Z,2.58
2022-08-11T10:17:09.384Z,2.38
2022-08-11T10:19:40.345Z,3.30
2022-08-11T10:22:35.952Z,2.95
2022-08-11T10:25:25.294Z,4.38
2022-08-11T10:28:28.433Z,2.40
2022-08-11T10:31:57.889Z,2.83
2022-08-11T10:35:19.744Z,2.42
2022-08-11T10:38:09.920Z,2.50
2022-08-11T10:40:46.067Z,3.10
2022-08-11T10:44:01.640Z,2.10
2022-08-11T10:46:52.325Z,2.33
2022-08-11T10:49:27.590Z,2.15
2022-08-11T10:55:17.846Z,2.40
2022-08-11T10:58:14.893Z,2.08
2022-08-11T11:00:44.831Z,1.65
2022-08-11T11:03:27.489Z,1.80
2022-08-11T11:06:28.424Z,1.80
2022-08-11T11:10:16.895Z,1.55
2022-08-11T11:13:13.580Z,1.88
2022-08-11T11:19:29.692Z,1.52
2022-08-11T11:25:36.202Z,1.60
2022-08-11T11:32:04.708Z,1.70
2022-08-11T11:35:34.927Z,1.70
2022-08-11T11:38:41.946Z,1.30
2022-08-11T11:44:44.624Z,1.50
2022-08-11T11:53:47.315Z,1.50
2022-08-11T11:56:18.069Z,1.65
2022-08-11T11:59:04.242Z,1.98
2022-08-11T12:04:51.490Z,1.90
2022-08-11T12:07:43.692Z,1.33
2022-08-11T12:10:10.906Z,1.70
2022-08-11T12:12:59.722Z,1.30
2022-08-11T12:16:32.222Z,1.50
2022-08-11T12:18:25.881Z,1.48
2022-08-11T12:20:59.991Z,1.67
2022-08-11T12:23:48.839Z,2.05
2022-08-11T12:26:38.685Z,1.40
2022-08-11T12:29:26.111Z,1.35
2022-08-11T12:35:21.822Z,1.77
2022-08-11T12:38:29.854Z,1.67
2022-08-11T12:41:52.470Z,1.33
2022-08-11T12:44:53.462Z,1.30
2022-08-11T12:48:57.435Z,1.48
2022-08-11T12:52:01.543Z,1.73
2022-08-11T12:58:20.172Z,1.45
2022-08-11T13:01:38.979Z,1.70
2022-08-11T13:07:50.971Z,1.40
2022-08-11T13:13:55.648Z,1.63
2022-08-11T13:17:08.944Z,1.85
2022-08-11T13:19:52.641Z,1.42
2022-08-11T13:22:32.602Z,1.63
2022-08-11T13:25:35.526Z,1.77
2022-08-11T13:31:15.185Z,1.45
2022-08-11T13:33:46.328Z,1.50
2022-08-11T13:36:22.008Z,2.40
2022-08-11T13:38:57.937Z,2.10
2022-08-11T13:41:43.203Z,1.95
2022-08-11T13:44:42.553Z,1.70
2022-08-11T13:47:41.873Z,1.70
2022-08-11T13:50:20.202Z,1.63
2022-08-11T13:52:59.610Z,1.52
2022-08-11T13:55:52.675Z,1.45
2022-08-11T13:58:53.998Z,1.48
2022-08-11T14:05:03.353Z,1.58
2022-08-11T14:12:20.520Z,1.60
2022-08-11T14:14:12.203Z,1.52
2022-08-11T14:17:00.173Z,1.50
2022-08-11T14:19:45.823Z,1.75
2022-08-11T14:26:10.493Z,1.38
2022-08-11T14:28:46.697Z,1.65
2022-08-11T14:31:23.327Z,1.67
2022-08-11T14:34:02.038Z,2.00
2022-08-11T14:36:54.887Z,1.90
2022-08-11T14:39:27.869Z,1.42
2022-08-11T14:42:32.253Z,1.67
2022-08-11T14:45:54.311Z,1.35
2022-08-11T14:48:25.277Z,1.33
2022-08-11T14:50:53.473Z,1.73
2022-08-11T14:53:58.455Z,2.22
2022-08-11T14:56:47.283Z,1.83
2022-08-11T14:59:17.536Z,2.17
2022-08-11T15:02:27.303Z,2.03
2022-08-11T15:04:59.012Z,1.48
2022-08-11T15:07:41.577Z,1.60
2022-08-11T15:10:51.761Z,1.60
2022-08-11T15:13:27.524Z,1.83
2022-08-11T15:22:00.661Z,1.50
2022-08-11T15:31:35.093Z,1.90
2022-08-11T15:35:14.890Z,2.10
2022-08-11T15:37:59.856Z,2.75
2022-08-11T15:40:49.618Z,4.05
2022-08-11T15:47:42.179Z,1.33
2022-08-11T15:50:31.504Z,1.42
2022-08-11T15:53:18.749Z,1.90
2022-08-11T15:55:59.013Z,1.88
2022-08-11T15:59:10.567Z,1.58
2022-08-11T16:02:05.037Z,1.70
2022-08-11T16:05:08.883Z,1.80
2022-08-11T16:08:03.242Z,1.65
2022-08-11T16:10:45.088Z,2.53
2022-08-11T16:27:03.990Z,3.13
2022-08-11T16:27:48.500Z,2.10
2022-08-11T16:30:21.988Z,2.75
2022-08-11T16:32:56.518Z,2.00
2022-08-11T16:36:08.074Z,1.63
2022-08-11T16:38:59.909Z,1.38
2022-08-11T16:41:50.235Z,2.47
2022-08-11T16:44:53.969Z,3.00
2022-08-11T16:48:02.804Z,2.53
2022-08-11T16:54:05.973Z,1.60
2022-08-11T16:56:48.680Z,1.65
2022-08-11T16:59:30.177Z,1.70
2022-08-11T17:02:41.081Z,1.92
2022-08-11T17:05:54.285Z,1.75
2022-08-11T17:08:57.220Z,1.85
2022-08-11T17:11:51.448Z,2.47
2022-08-11T17:14:38.567Z,2.33
2022-08-11T17:17:23.328Z,1.90
2022-08-11T17:20:40.379Z,2.42
2022-08-11T17:23:29.769Z,2.45
2022-08-11T17:26:04.368Z,2.95
2022-08-11T17:29:01.026Z,1.95
2022-08-11T17:39:09.539Z,2.33
2022-08-11T17:46:21.637Z,1.63
2022-08-11T17:49:10.999Z,1.70
2022-08-11T17:55:54.586Z,1.75
2022-08-11T17:59:10.837Z,1.85
2022-08-11T18:02:34.635Z,1.63
2022-08-11T18:05:25.082Z,1.70
2022-08-11T18:08:21.554Z,1.70
2022-08-11T18:12:07.065Z,1.98
2022-08-11T18:14:50.181Z,1.33
2022-08-11T18:17:41.553Z,2.10
2022-08-11T18:20:31.301Z,2.40
2022-08-11T18:23:40.726Z,2.42
2022-08-11T18:26:43.547Z,2.88
2022-08-11T18:29:43.579Z,2.55
2022-08-11T18:32:49.783Z,2.38
2022-08-11T18:35:39.674Z,2.30
2022-08-11T18:41:38.085Z,3.10
2022-08-11T18:44:28.930Z,3.10
2022-08-11T18:47:19.503Z,4.05
2022-08-11T18:51:29.497Z,2.90
2022-08-11T18:53:46.848Z,2.95
2022-08-11T18:56:44.242Z,3.40
2022-08-11T18:59:42.032Z,3.10
2022-08-11T19:02:48.448Z,5.60
2022-08-11T19:06:32.115Z,2.17
2022-08-11T19:09:05.578Z,2.70
2022-08-11T19:11:53.440Z,2.95
2022-08-11T19:14:43.424Z,2.38
2022-08-11T19:21:14.220Z,3.25
2022-08-11T19:24:07.298Z,2.60
2022-08-11T19:27:01.276Z,3.28
2022-08-11T19:30:12.228Z,2.35
2022-08-11T19:33:02.680Z,2.90
2022-08-11T19:35:53.953Z,2.72
2022-08-11T19:38:47.113Z,2.30
2022-08-11T19:41:56.346Z,3.05
2022-08-11T19:44:49.000Z,2.95
2022-08-11T19:47:41.307Z,2.85
2022-08-11T19:50:27.170Z,2.90
2022-08-11T19:53:23.154Z,2.58
2022-08-11T19:56:38.893Z,3.13
2022-08-11T20:02:25.402Z,3.08
2022-08-11T20:05:14.513Z,3.95
2022-08-11T20:08:11.415Z,2.58
2022-08-11T20:11:10.517Z,3.22
2022-08-11T20:14:15.699Z,3.38
2022-08-11T20:17:13.520Z,2.83
2022-08-11T20:20:11.011Z,3.03
2022-08-11T20:23:06.492Z,2.67
2022-08-11T20:26:13.956Z,2.25
2022-08-11T20:29:04.823Z,2.38
2022-08-11T20:31:53.469Z,2.63
2022-08-11T20:35:08.436Z,2.70
2022-08-11T20:37:54.566Z,2.72
2022-08-11T20:40:55.105Z,2.90
2022-08-11T20:44:06.465Z,2.63
2022-08-11T20:47:06.125Z,3.03
2022-08-11T20:50:19.452Z,3.00
2022-08-11T20:56:28.454Z,3.85
2022-08-11T20:59:21.875Z,3.60
2022-08-11T21:02:21.149Z,4.47
2022-08-11T21:06:10.122Z,5.93
2022-08-11T21:08:46.899Z,3.05
2022-08-11T21:11:33.899Z,3.15
2022-08-11T21:14:30.291Z,2.95
2022-08-11T21:17:27.532Z,2.20
2022-08-11T21:27:01.548Z,2.50
2022-08-11T21:30:00.228Z,2.63
2022-08-11T21:32:49.160Z,2.50
2022-08-11T21:35:37.495Z,2.63
2022-08-11T21:38:31.736Z,2.70
2022-08-11T21:41:30.420Z,2.70
2022-08-11T21:44:27.087Z,2.33
2022-08-11T21:47:15.589Z,2.53
2022-08-11T21:50:09.619Z,3.42
2022-08-11T21:53:00.956Z,2.65
2022-08-11T21:55:47.093Z,3.00
2022-08-11T21:58:34.840Z,2.72
2022-08-11T22:01:20.235Z,2.50
2022-08-11T22:04:21.023Z,2.47
2022-08-11T22:07:11.825Z,2.58
2022-08-11T22:09:58.397Z,3.10
2022-08-11T22:12:45.440Z,2.25
2022-08-11T22:15:31.605Z,2.80
2022-08-11T22:18:20.152Z,3.00
2022-08-11T22:21:07.410Z,2.53
2022-08-11T22:24:03.135Z,3.72
2022-08-11T22:26:57.045Z,3.00
2022-08-11T22:29:51.301Z,2.22
2022-08-11T22:32:42.059Z,2.15
2022-08-11T22:35:29.756Z,1.90
2022-08-11T22:38:17.689Z,2.60
2022-08-11T22:41:06.463Z,2.30
2022-08-11T22:43:55.145Z,2.80
2022-08-11T22:46:43.375Z,2.53
2022-08-11T22:49:42.581Z,2.63
2022-08-11T22:52:43.344Z,2.17
2022-08-11T22:55:31.578Z,2.72
2022-08-11T22:58:36.793Z,2.67
2022-08-11T23:01:23.014Z,2.38
2022-08-11T23:04:08.804Z,3.13
2022-08-11T23:07:01.045Z,2.45
2022-08-11T23:09:46.847Z,2.60
2022-08-11T23:12:38.581Z,3.10
2022-08-11T23:15:28.031Z,2.20
2022-08-11T23:18:17.397Z,2.47
2022-08-11T23:21:04.259Z,2.63
2022-08-11T23:23:51.308Z,2.40
2022-08-11T23:26:43.344Z,2.15
2022-08-11T23:29:33.139Z,2.35
2022-08-11T23:32:28.739Z,2.33
2022-08-11T23:35:38.476Z,3.10
2022-08-11T23:38:38.012Z,2.20
2022-08-11T23:41:25.718Z,2.47
2022-08-11T23:44:19.034Z,2.60
2022-08-11T23:47:07.653Z,2.55
2022-08-11T23:50:06.970Z,2.22
2022-08-11T23:52:54.013Z,2.53
2022-08-11T23:55:40.573Z,2.60
2022-08-11T23:58:26.842Z,2.35
